sensor_id;sensor_type;location;lat;lon;timestamp;pressure;altitude;pressure_sealevel;temperature;humidity
23223;BME280;11780;13.904;100.620;2023-03-18T00:02:37;101207.09;;;30.30;70.24
23223;BME280;11780;13.904;100.620;2023-03-18T00:05:07;101208.84;;;30.26;70.28
23223;BME280;11780;13.904;100.620;2023-03-18T00:07:38;101207.75;;;30.27;70.44
23223;BME280;11780;13.904;100.620;2023-03-18T00:10:10;101199.56;;;30.22;70.25
23223;BME280;11780;13.904;100.620;2023-03-18T00:12:40;101213.03;;;30.23;70.64
23223;BME280;11780;13.904;100.620;2023-03-18T00:15:13;101216.09;;;30.22;70.36
23223;BME280;11780;13.904;100.620;2023-03-18T00:17:45;101214.91;;;30.28;70.39
23223;BME280;11780;13.904;100.620;2023-03-18T00:20:17;101228.03;;;30.31;70.52
23223;BME280;11780;13.904;100.620;2023-03-18T00:22:57;101227.75;;;30.33;70.41
23223;BME280;11780;13.904;100.620;2023-03-18T00:25:27;101239.59;;;30.33;70.12
23223;BME280;11780;13.904;100.620;2023-03-18T00:27:58;101235.09;;;30.37;69.96
23223;BME280;11780;13.904;100.620;2023-03-18T00:30:28;101237.03;;;30.37;69.96
23223;BME280;11780;13.904;100.620;2023-03-18T00:33:00;101239.78;;;30.37;70.18
23223;BME280;11780;13.904;100.620;2023-03-18T00:35:30;101246.34;;;30.41;70.37
23223;BME280;11780;13.904;100.620;2023-03-18T00:38:02;101254.63;;;30.41;70.42
23223;BME280;11780;13.904;100.620;2023-03-18T00:40:36;101254.34;;;30.43;70.22
23223;BME280;11780;13.904;100.620;2023-03-18T00:43:23;101254.53;;;30.46;70.47
23223;BME280;11780;13.904;100.620;2023-03-18T00:45:59;101260.34;;;30.45;69.76
23223;BME280;11780;13.904;100.620;2023-03-18T00:48:29;101261.16;;;30.45;69.87
23223;BME280;11780;13.904;100.620;2023-03-18T00:51:00;101263.31;;;30.48;69.95
23223;BME280;11780;13.904;100.620;2023-03-18T00:53:30;101263.00;;;30.50;70.20
23223;BME280;11780;13.904;100.620;2023-03-18T00:56:00;101269.34;;;30.50;69.98
23223;BME280;11780;13.904;100.620;2023-03-18T00:58:31;101268.22;;;30.51;69.98
23223;BME280;11780;13.904;100.620;2023-03-18T01:01:04;101281.13;;;30.56;69.88
23223;BME280;11780;13.904;100.620;2023-03-18T01:03:35;101279.50;;;30.55;69.63
23223;BME280;11780;13.904;100.620;2023-03-18T01:06:05;101286.66;;;30.56;69.74
23223;BME280;11780;13.904;100.620;2023-03-18T01:08:36;101282.75;;;30.57;69.96
23223;BME280;11780;13.904;100.620;2023-03-18T01:11:06;101289.94;;;30.58;69.82
23223;BME280;11780;13.904;100.620;2023-03-18T01:13:37;101293.50;;;30.59;69.91
23223;BME280;11780;13.904;100.620;2023-03-18T01:16:08;101300.13;;;30.58;69.84
23223;BME280;11780;13.904;100.620;2023-03-18T01:18:39;101300.97;;;30.58;69.86
23223;BME280;11780;13.904;100.620;2023-03-18T01:21:10;101303.72;;;30.58;69.83
23223;BME280;11780;13.904;100.620;2023-03-18T01:23:47;101301.78;;;30.59;70.13
23223;BME280;11780;13.904;100.620;2023-03-18T01:26:18;101298.22;;;30.58;69.82
23223;BME280;11780;13.904;100.620;2023-03-18T01:28:48;101311.69;;;30.60;69.41
23223;BME280;11780;13.904;100.620;2023-03-18T01:31:20;101306.97;;;30.60;70.08
23223;BME280;11780;13.904;100.620;2023-03-18T01:33:57;101314.44;;;30.60;69.58
23223;BME280;11780;13.904;100.620;2023-03-18T01:36:37;101314.44;;;30.60;69.87
23223;BME280;11780;13.904;100.620;2023-03-18T01:39:08;101316.41;;;30.59;69.64
23223;BME280;11780;13.904;100.620;2023-03-18T01:41:39;101313.66;;;30.59;69.73
23223;BME280;11780;13.904;100.620;2023-03-18T01:44:13;101317.22;;;30.60;69.64
23223;BME280;11780;13.904;100.620;2023-03-18T01:46:47;101310.56;;;30.61;70.00
23223;BME280;11780;13.904;100.620;2023-03-18T01:49:33;101313.00;;;30.62;69.82
23223;BME280;11780;13.904;100.620;2023-03-18T01:52:12;101313.53;;;30.64;69.46
23223;BME280;11780;13.904;100.620;2023-03-18T01:54:49;101314.22;;;30.70;69.67
23223;BME280;11780;13.904;100.620;2023-03-18T01:57:22;101321.09;;;30.73;68.97
23223;BME280;11780;13.904;100.620;2023-03-18T01:59:54;101320.47;;;30.76;69.11
23223;BME280;11780;13.904;100.620;2023-03-18T02:02:26;101324.84;;;30.77;69.03
23223;BME280;11780;13.904;100.620;2023-03-18T02:05:01;101321.81;;;30.78;69.07
23223;BME280;11780;13.904;100.620;2023-03-18T02:07:34;101308.78;;;30.79;69.07
23223;BME280;11780;13.904;100.620;2023-03-18T02:10:08;101318.72;;;30.80;68.82
23223;BME280;11780;13.904;100.620;2023-03-18T02:12:43;101322.81;;;30.82;68.66
23223;BME280;11780;13.904;100.620;2023-03-18T02:15:21;101324.44;;;30.83;68.67
23223;BME280;11780;13.904;100.620;2023-03-18T02:18:16;101321.19;;;30.81;68.89
23223;BME280;11780;13.904;100.620;2023-03-18T02:20:57;101328.34;;;30.82;68.52
23223;BME280;11780;13.904;100.620;2023-03-18T02:29:07;101338.75;;;30.86;68.58
23223;BME280;11780;13.904;100.620;2023-03-18T02:31:49;101334.88;;;30.87;68.34
23223;BME280;11780;13.904;100.620;2023-03-18T02:34:25;101339.59;;;30.86;68.33
23223;BME280;11780;13.904;100.620;2023-03-18T02:36:57;101339.59;;;30.86;68.14
23223;BME280;11780;13.904;100.620;2023-03-18T02:39:27;101348.69;;;30.87;67.79
23223;BME280;11780;13.904;100.620;2023-03-18T02:42:00;101346.75;;;30.87;67.95
23223;BME280;11780;13.904;100.620;2023-03-18T02:44:31;101339.78;;;30.90;68.26
23223;BME280;11780;13.904;100.620;2023-03-18T02:47:23;101347.25;;;30.89;68.25
23223;BME280;11780;13.904;100.620;2023-03-18T02:49:55;101350.81;;;30.90;67.97
23223;BME280;11780;13.904;100.620;2023-03-18T02:52:25;101346.13;;;30.90;67.72
23223;BME280;11780;13.904;100.620;2023-03-18T02:54:56;101355.22;;;30.91;67.75
23223;BME280;11780;13.904;100.620;2023-03-18T02:57:29;101349.38;;;30.92;68.13
23223;BME280;11780;13.904;100.620;2023-03-18T02:59:59;101348.91;;;30.90;68.16
23223;BME280;11780;13.904;100.620;2023-03-18T03:02:29;101353.28;;;30.91;68.04
23223;BME280;11780;13.904;100.620;2023-03-18T03:05:00;101351.34;;;30.92;67.98
23223;BME280;11780;13.904;100.620;2023-03-18T03:07:30;101346.63;;;30.92;67.85
23223;BME280;11780;13.904;100.620;2023-03-18T03:10:04;101345.50;;;30.93;67.84
23223;BME280;11780;13.904;100.620;2023-03-18T03:12:38;101337.22;;;30.93;67.57
23223;BME280;11780;13.904;100.620;2023-03-18T03:15:10;101328.13;;;30.93;67.57
23223;BME280;11780;13.904;100.620;2023-03-18T03:17:46;101335.28;;;30.94;67.70
23223;BME280;11780;13.904;100.620;2023-03-18T03:20:17;101326.66;;;30.95;67.91
23223;BME280;11780;13.904;100.620;2023-03-18T03:22:47;101327.50;;;30.96;67.58
23223;BME280;11780;13.904;100.620;2023-03-18T03:25:19;101318.38;;;30.95;67.42
23223;BME280;11780;13.904;100.620;2023-03-18T03:27:50;101312.84;;;30.95;67.74
23223;BME280;11780;13.904;100.620;2023-03-18T03:30:21;101315.63;;;30.95;67.37
23223;BME280;11780;13.904;100.620;2023-03-18T03:32:52;101319.72;;;30.98;67.45
23223;BME280;11780;13.904;100.620;2023-03-18T03:35:22;101320.53;;;30.98;67.40
23223;BME280;11780;13.904;100.620;2023-03-18T03:37:52;101312.56;;;30.97;67.31
23223;BME280;11780;13.904;100.620;2023-03-18T03:40:23;101303.16;;;30.98;67.51
23223;BME280;11780;13.904;100.620;2023-03-18T03:42:53;101303.16;;;30.98;67.88
23223;BME280;11780;13.904;100.620;2023-03-18T03:45:23;101292.91;;;30.98;67.25
23223;BME280;11780;13.904;100.620;2023-03-18T03:47:53;101293.69;;;30.99;67.15
23223;BME280;11780;13.904;100.620;2023-03-18T03:50:23;101289.00;;;30.99;67.49
23223;BME280;11780;13.904;100.620;2023-03-18T03:52:53;101287.88;;;31.01;67.58
23223;BME280;11780;13.904;100.620;2023-03-18T03:55:27;101284.00;;;31.02;67.42
23223;BME280;11780;13.904;100.620;2023-03-18T03:57:57;101285.63;;;31.03;67.18
23223;BME280;11780;13.904;100.620;2023-03-18T04:00:29;101277.63;;;31.01;67.45
23223;BME280;11780;13.904;100.620;2023-03-18T04:03:00;101269.06;;;31.03;67.18
23223;BME280;11780;13.904;100.620;2023-03-18T04:05:31;101267.94;;;31.04;67.17
23223;BME280;11780;13.904;100.620;2023-03-18T04:08:01;101262.41;;;31.04;67.11
23223;BME280;11780;13.904;100.620;2023-03-18T04:10:36;101254.91;;;31.04;66.90
23223;BME280;11780;13.904;100.620;2023-03-18T04:13:09;101260.16;;;31.06;67.07
23223;BME280;11780;13.904;100.620;2023-03-18T04:15:40;101249.09;;;31.06;66.99
23223;BME280;11780;13.904;100.620;2023-03-18T04:18:14;101249.91;;;31.06;66.92
23223;BME280;11780;13.904;100.620;2023-03-18T04:20:45;101247.94;;;31.07;66.85
23223;BME280;11780;13.904;100.620;2023-03-18T04:23:25;101238.03;;;31.06;66.85
23223;BME280;11780;13.904;100.620;2023-03-18T04:25:56;101232.53;;;31.06;66.85
23223;BME280;11780;13.904;100.620;2023-03-18T04:28:26;101230.22;;;31.08;66.76
23223;BME280;11780;13.904;100.620;2023-03-18T04:30:56;101223.91;;;31.07;66.69
23223;BME280;11780;13.904;100.620;2023-03-18T04:33:27;101218.38;;;31.07;66.51
23223;BME280;11780;13.904;100.620;2023-03-18T04:35:57;101216.41;;;31.08;66.21
23223;BME280;11780;13.904;100.620;2023-03-18T04:38:27;101207.00;;;31.09;66.54
23223;BME280;11780;13.904;100.620;2023-03-18T04:40:57;101211.41;;;31.10;66.40
23223;BME280;11780;13.904;100.620;2023-03-18T04:43:28;101205.06;;;31.09;66.08
23223;BME280;11780;13.904;100.620;2023-03-18T04:45:58;101197.59;;;31.10;65.79
23223;BME280;11780;13.904;100.620;2023-03-18T04:48:28;101192.06;;;31.10;65.56
23223;BME280;11780;13.904;100.620;2023-03-18T04:51:02;101184.28;;;31.12;65.93
23223;BME280;11780;13.904;100.620;2023-03-18T04:53:36;101173.22;;;31.12;65.98
23223;BME280;11780;13.904;100.620;2023-03-18T04:56:08;101167.44;;;31.13;65.95
23223;BME280;11780;13.904;100.620;2023-03-18T04:58:45;101173.75;;;31.14;66.15
23223;BME280;11780;13.904;100.620;2023-03-18T05:01:24;101166.25;;;31.14;65.43
23223;BME280;11780;13.904;100.620;2023-03-18T05:03:55;101164.34;;;31.15;65.81
23223;BME280;11780;13.904;100.620;2023-03-18T05:06:34;101155.53;;;31.13;65.55
23223;BME280;11780;13.904;100.620;2023-03-18T05:09:09;101145.00;;;31.15;64.98
23223;BME280;11780;13.904;100.620;2023-03-18T05:11:40;101149.38;;;31.16;64.35
23223;BME280;11780;13.904;100.620;2023-03-18T05:14:22;101142.72;;;31.17;64.05
23223;BME280;11780;13.904;100.620;2023-03-18T05:16:53;101142.41;;;31.19;64.32
23223;BME280;11780;13.904;100.620;2023-03-18T05:19:23;101135.75;;;31.20;64.05
23223;BME280;11780;13.904;100.620;2023-03-18T05:22:13;101119.16;;;31.20;64.54
23223;BME280;11780;13.904;100.620;2023-03-18T05:24:47;101118.53;;;31.23;64.64
23223;BME280;11780;13.904;100.620;2023-03-18T05:27:19;101113.81;;;31.23;64.97
23223;BME280;11780;13.904;100.620;2023-03-18T05:30:04;101105.72;;;31.27;64.49
23223;BME280;11780;13.904;100.620;2023-03-18T05:32:48;101098.72;;;31.29;64.27
23223;BME280;11780;13.904;100.620;2023-03-18T05:35:24;101094.84;;;31.31;64.42
23223;BME280;11780;13.904;100.620;2023-03-18T05:37:54;101087.84;;;31.33;64.05
23223;BME280;11780;13.904;100.620;2023-03-18T05:40:25;101088.97;;;31.32;64.11
23223;BME280;11780;13.904;100.620;2023-03-18T05:43:15;101084.59;;;31.31;64.05
23223;BME280;11780;13.904;100.620;2023-03-18T05:45:50;101077.63;;;31.34;63.88
23223;BME280;11780;13.904;100.620;2023-03-18T05:48:27;101072.91;;;31.34;63.75
23223;BME280;11780;13.904;100.620;2023-03-18T05:51:03;101065.75;;;31.33;64.09
23223;BME280;11780;13.904;100.620;2023-03-18T05:53:36;101049.16;;;31.33;63.68
23223;BME280;11780;13.904;100.620;2023-03-18T05:56:18;101045.09;;;31.31;63.15
23223;BME280;11780;13.904;100.620;2023-03-18T05:58:51;101041.19;;;31.32;63.08
23223;BME280;11780;13.904;100.620;2023-03-18T06:01:37;101040.06;;;31.33;63.25
23223;BME280;11780;13.904;100.620;2023-03-18T06:04:08;101027.88;;;31.34;63.02
23223;BME280;11780;13.904;100.620;2023-03-18T06:06:38;101027.88;;;31.34;63.73
23223;BME280;11780;13.904;100.620;2023-03-18T06:09:11;101024.28;;;31.33;63.78
23223;BME280;11780;13.904;100.620;2023-03-18T06:11:43;101019.25;;;31.35;63.60
23223;BME280;11780;13.904;100.620;2023-03-18T06:14:14;101012.59;;;31.36;63.48
23223;BME280;11780;13.904;100.620;2023-03-18T06:16:44;100997.63;;;31.37;63.70
23223;BME280;11780;13.904;100.620;2023-03-18T06:19:20;100989.69;;;31.36;63.52
23223;BME280;11780;13.904;100.620;2023-03-18T06:21:50;100985.28;;;31.35;63.10
23223;BME280;11780;13.904;100.620;2023-03-18T06:24:21;100983.81;;;31.37;62.92
23223;BME280;11780;13.904;100.620;2023-03-18T06:26:52;100981.06;;;31.37;63.16
23223;BME280;11780;13.904;100.620;2023-03-18T06:29:23;100977.16;;;31.38;63.11
23223;BME280;11780;13.904;100.620;2023-03-18T06:31:58;100970.50;;;31.39;63.01
23223;BME280;11780;13.904;100.620;2023-03-18T06:34:28;100965.25;;;31.38;63.14
23223;BME280;11780;13.904;100.620;2023-03-18T06:36:58;100963.81;;;31.40;63.37
23223;BME280;11780;13.904;100.620;2023-03-18T06:39:28;100950.81;;;31.41;62.88
23223;BME280;11780;13.904;100.620;2023-03-18T06:42:02;100950.81;;;31.41;63.13
23223;BME280;11780;13.904;100.620;2023-03-18T06:44:52;100943.00;;;31.43;62.87
23223;BME280;11780;13.904;100.620;2023-03-18T06:47:30;100939.09;;;31.44;62.87
23223;BME280;11780;13.904;100.620;2023-03-18T06:50:00;100935.22;;;31.45;62.84
23223;BME280;11780;13.904;100.620;2023-03-18T06:52:34;100926.13;;;31.44;62.65
23223;BME280;11780;13.904;100.620;2023-03-18T06:55:10;100923.34;;;31.44;62.74
23223;BME280;11780;13.904;100.620;2023-03-18T06:57:43;100915.22;;;31.48;62.79
23223;BME280;11780;13.904;100.620;2023-03-18T07:00:18;100908.56;;;31.49;62.76
23223;BME280;11780;13.904;100.620;2023-03-18T07:02:52;100904.66;;;31.50;62.59
23223;BME280;11780;13.904;100.620;2023-03-18T07:05:25;100899.63;;;31.52;62.50
23223;BME280;11780;13.904;100.620;2023-03-18T07:07:55;100888.22;;;31.54;62.74
23223;BME280;11780;13.904;100.620;2023-03-18T07:10:28;100884.63;;;31.53;62.80
23223;BME280;11780;13.904;100.620;2023-03-18T07:13:09;100882.84;;;31.57;62.43
23223;BME280;11780;13.904;100.620;2023-03-18T07:15:40;100878.94;;;31.58;62.98
23223;BME280;11780;13.904;100.620;2023-03-18T07:18:11;100877.31;;;31.57;63.01
23223;BME280;11780;13.904;100.620;2023-03-18T07:20:45;100872.63;;;31.58;62.83
23223;BME280;11780;13.904;100.620;2023-03-18T07:23:16;100871.94;;;31.61;62.50
23223;BME280;11780;13.904;100.620;2023-03-18T07:25:46;100860.09;;;31.61;63.09
23223;BME280;11780;13.904;100.620;2023-03-18T07:28:18;100866.91;;;31.63;63.03
23223;BME280;11780;13.904;100.620;2023-03-18T07:30:49;100854.41;;;31.66;62.76
23223;BME280;11780;13.904;100.620;2023-03-18T07:33:21;100838.94;;;31.65;62.94
23223;BME280;11780;13.904;100.620;2023-03-18T07:35:51;100834.22;;;31.65;62.87
23223;BME280;11780;13.904;100.620;2023-03-18T07:38:21;100834.34;;;31.69;62.81
23223;BME280;11780;13.904;100.620;2023-03-18T07:40:52;100833.25;;;31.70;62.81
23223;BME280;11780;13.904;100.620;2023-03-18T07:43:22;100834.88;;;31.71;63.08
23223;BME280;11780;13.904;100.620;2023-03-18T07:45:51;100824.78;;;31.75;62.88
23223;BME280;11780;13.904;100.620;2023-03-18T07:48:21;100826.91;;;31.78;62.92
23223;BME280;11780;13.904;100.620;2023-03-18T07:50:51;100824.16;;;31.78;62.64
23223;BME280;11780;13.904;100.620;2023-03-18T07:53:21;100807.56;;;31.78;62.96
23223;BME280;11780;13.904;100.620;2023-03-18T07:55:52;100811.28;;;31.82;62.97
23223;BME280;11780;13.904;100.620;2023-03-18T07:58:22;100810.81;;;31.80;62.95
23223;BME280;11780;13.904;100.620;2023-03-18T08:00:53;100804.13;;;31.81;62.50
23223;BME280;11780;13.904;100.620;2023-03-18T08:03:23;100803.78;;;31.83;62.64
23223;BME280;11780;13.904;100.620;2023-03-18T08:05:53;100810.16;;;31.83;62.72
23223;BME280;11780;13.904;100.620;2023-03-18T08:08:24;100798.25;;;31.83;62.79
23223;BME280;11780;13.904;100.620;2023-03-18T08:10:57;100799.41;;;31.82;62.58
23223;BME280;11780;13.904;100.620;2023-03-18T08:13:29;100789.16;;;31.82;62.75
23223;BME280;11780;13.904;100.620;2023-03-18T08:15:59;100793.56;;;31.83;62.62
23223;BME280;11780;13.904;100.620;2023-03-18T08:18:29;100785.25;;;31.83;62.49
23223;BME280;11780;13.904;100.620;2023-03-18T08:21:00;100785.25;;;31.83;62.51
23223;BME280;11780;13.904;100.620;2023-03-18T08:23:30;100791.25;;;31.85;62.60
23223;BME280;11780;13.904;100.620;2023-03-18T08:26:00;100776.28;;;31.86;62.43
23223;BME280;11780;13.904;100.620;2023-03-18T08:28:31;100775.13;;;31.87;62.47
23223;BME280;11780;13.904;100.620;2023-03-18T08:31:02;100768.47;;;31.88;62.22
23223;BME280;11780;13.904;100.620;2023-03-18T08:33:34;100757.75;;;31.87;62.42
23223;BME280;11780;13.904;100.620;2023-03-18T08:36:05;100759.69;;;31.86;62.52
23223;BME280;11780;13.904;100.620;2023-03-18T08:38:35;100763.28;;;31.87;62.63
23223;BME280;11780;13.904;100.620;2023-03-18T08:41:05;100752.69;;;31.89;62.40
23223;BME280;11780;13.904;100.620;2023-03-18T08:43:35;100746.81;;;31.91;62.16
23223;BME280;11780;13.904;100.620;2023-03-18T08:46:05;100745.19;;;31.89;62.07
23223;BME280;11780;13.904;100.620;2023-03-18T08:48:36;100747.97;;;31.89;61.99
23223;BME280;11780;13.904;100.620;2023-03-18T08:51:06;100744.06;;;31.91;61.95
23223;BME280;11780;13.904;100.620;2023-03-18T08:53:43;100744.41;;;31.89;61.90
23223;BME280;11780;13.904;100.620;2023-03-18T08:56:14;100744.06;;;31.91;61.85
23223;BME280;11780;13.904;100.620;2023-03-18T08:58:46;100736.09;;;31.89;61.70
23223;BME280;11780;13.904;100.620;2023-03-18T09:01:19;100740.50;;;31.90;61.67
23223;BME280;11780;13.904;100.620;2023-03-18T09:03:50;100732.69;;;31.92;61.70
23223;BME280;11780;13.904;100.620;2023-03-18T09:06:20;100730.72;;;31.93;61.54
23223;BME280;11780;13.904;100.620;2023-03-18T09:08:51;100728.75;;;31.93;61.42
23223;BME280;11780;13.904;100.620;2023-03-18T09:11:22;100727.59;;;31.94;61.68
23223;BME280;11780;13.904;100.620;2023-03-18T09:13:53;100732.34;;;31.94;61.38
23223;BME280;11780;13.904;100.620;2023-03-18T09:16:23;100732.00;;;31.95;61.54
23223;BME280;11780;13.904;100.620;2023-03-18T09:18:53;100727.28;;;31.96;61.26
23223;BME280;11780;13.904;100.620;2023-03-18T09:21:23;100726.47;;;31.95;61.54
23223;BME280;11780;13.904;100.620;2023-03-18T09:23:53;100727.78;;;31.98;61.17
23223;BME280;11780;13.904;100.620;2023-03-18T09:26:23;100723.38;;;31.97;61.28
23223;BME280;11780;13.904;100.620;2023-03-18T09:28:54;100724.19;;;31.97;61.19
23223;BME280;11780;13.904;100.620;2023-03-18T09:31:24;100728.91;;;31.97;61.06
23223;BME280;11780;13.904;100.620;2023-03-18T09:33:55;100729.72;;;31.97;61.45
23223;BME280;11780;13.904;100.620;2023-03-18T09:36:25;100730.06;;;31.96;61.02
23223;BME280;11780;13.904;100.620;2023-03-18T09:38:55;100727.94;;;31.93;61.00
23223;BME280;11780;13.904;100.620;2023-03-18T09:44:23;100730.38;;;31.94;61.09
23223;BME280;11780;13.904;100.620;2023-03-18T09:52:20;100725.00;;;31.98;60.76
23223;BME280;11780;13.904;100.620;2023-03-18T09:57:49;100724.66;;;31.99;60.59
23223;BME280;11780;13.904;100.620;2023-03-18T10:00:31;100717.50;;;31.98;60.65
23223;BME280;11780;13.904;100.620;2023-03-18T10:05:57;100718.00;;;32.00;60.60
23223;BME280;11780;13.904;100.620;2023-03-18T10:09:15;100725.94;;;32.02;60.71
23223;BME280;11780;13.904;100.620;2023-03-18T10:11:50;100724.31;;;32.01;60.28
23223;BME280;11780;13.904;100.620;2023-03-18T10:14:44;100736.22;;;32.01;60.39
23223;BME280;11780;13.904;100.620;2023-03-18T10:18:13;100727.44;;;31.99;60.50
23223;BME280;11780;13.904;100.620;2023-03-18T10:23:48;100730.06;;;31.96;60.54
23223;BME280;11780;13.904;100.620;2023-03-18T10:26:40;100735.59;;;31.96;60.74
23223;BME280;11780;13.904;100.620;2023-03-18T10:40:13;100737.53;;;31.95;60.74
23223;BME280;11780;13.904;100.620;2023-03-18T10:42:45;100744.69;;;31.96;60.99
23223;BME280;11780;13.904;100.620;2023-03-18T10:45:32;100743.88;;;31.96;61.00
23223;BME280;11780;13.904;100.620;2023-03-18T10:48:23;100757.38;;;31.97;60.88
23223;BME280;11780;13.904;100.620;2023-03-18T10:51:11;100748.28;;;31.97;60.87
23223;BME280;11780;13.904;100.620;2023-03-18T10:56:42;100751.03;;;31.97;61.32
23223;BME280;11780;13.904;100.620;2023-03-18T10:59:16;100756.88;;;31.95;61.40
23223;BME280;11780;13.904;100.620;2023-03-18T11:01:51;100760.78;;;31.94;61.57
23223;BME280;11780;13.904;100.620;2023-03-18T11:04:23;100764.41;;;31.95;61.19
23223;BME280;11780;13.904;100.620;2023-03-18T11:07:01;100758.03;;;31.94;61.55
23223;BME280;11780;13.904;100.620;2023-03-18T11:09:35;100760.34;;;31.92;61.34
23223;BME280;11780;13.904;100.620;2023-03-18T11:12:25;100768.31;;;31.94;61.60
23223;BME280;11780;13.904;100.620;2023-03-18T11:14:57;100775.47;;;31.95;61.60
23223;BME280;11780;13.904;100.620;2023-03-18T11:17:31;100771.06;;;31.94;61.95
23223;BME280;11780;13.904;100.620;2023-03-18T11:20:22;100779.38;;;31.94;61.73
23223;BME280;11780;13.904;100.620;2023-03-18T11:23:04;100780.50;;;31.93;61.88
23223;BME280;11780;13.904;100.620;2023-03-18T11:25:44;100783.28;;;31.93;61.89
23223;BME280;11780;13.904;100.620;2023-03-18T11:28:21;100782.78;;;31.91;61.61
23223;BME280;11780;13.904;100.620;2023-03-18T11:30:56;100780.03;;;31.91;61.76
23223;BME280;11780;13.904;100.620;2023-03-18T11:33:30;100783.94;;;31.89;61.52
23223;BME280;11780;13.904;100.620;2023-03-18T11:36:07;100791.09;;;31.91;61.86
23223;BME280;11780;13.904;100.620;2023-03-18T11:38:38;100782.78;;;31.91;61.71
23223;BME280;11780;13.904;100.620;2023-03-18T11:41:21;100792.22;;;31.89;62.01
23223;BME280;11780;13.904;100.620;2023-03-18T11:43:56;100797.44;;;31.91;62.02
23223;BME280;11780;13.904;100.620;2023-03-18T11:46:54;100790.59;;;31.88;62.27
23223;BME280;11780;13.904;100.620;2023-03-18T11:49:27;100796.63;;;31.91;62.07
23223;BME280;11780;13.904;100.620;2023-03-18T11:54:39;100804.78;;;31.87;61.85
23223;BME280;11780;13.904;100.620;2023-03-18T11:57:29;100804.78;;;31.87;62.29
23223;BME280;11780;13.904;100.620;2023-03-18T12:14:27;100812.59;;;31.85;62.69
23223;BME280;11780;13.904;100.620;2023-03-18T12:28:13;100833.59;;;31.77;62.96
23223;BME280;11780;13.904;100.620;2023-03-18T12:31:05;100842.53;;;31.74;63.18
23223;BME280;11780;13.904;100.620;2023-03-18T12:33:58;100844.50;;;31.73;63.33
23223;BME280;11780;13.904;100.620;2023-03-18T12:36:37;100841.72;;;31.73;63.19
23223;BME280;11780;13.904;100.620;2023-03-18T12:43:02;100850.34;;;31.72;63.55
23223;BME280;11780;13.904;100.620;2023-03-18T12:45:27;100864.66;;;31.74;63.51
23223;BME280;11780;13.904;100.620;2023-03-18T12:48:13;100862.72;;;31.74;63.78
23223;BME280;11780;13.904;100.620;2023-03-18T12:51:03;100863.97;;;31.68;63.76
23223;BME280;11780;13.904;100.620;2023-03-18T12:53:49;100867.56;;;31.60;63.89
23223;BME280;11780;13.904;100.620;2023-03-18T12:56:28;100862.34;;;31.50;63.97
23223;BME280;11780;13.904;100.620;2023-03-18T12:59:14;100868.22;;;31.48;64.11
23223;BME280;11780;13.904;100.620;2023-03-18T13:02:06;100879.13;;;31.44;63.97
23223;BME280;11780;13.904;100.620;2023-03-18T13:04:49;100877.16;;;31.45;63.58
23223;BME280;11780;13.904;100.620;2023-03-18T13:07:39;100876.19;;;31.41;63.83
23223;BME280;11780;13.904;100.620;2023-03-18T13:10:19;100877.31;;;31.40;63.60
23223;BME280;11780;13.904;100.620;2023-03-18T13:12:52;100885.78;;;31.35;63.68
23223;BME280;11780;13.904;100.620;2023-03-18T13:15:34;100891.13;;;31.31;63.84
23223;BME280;11780;13.904;100.620;2023-03-18T13:20:51;100899.88;;;31.24;64.22
23223;BME280;11780;13.904;100.620;2023-03-18T13:23:56;100907.34;;;31.15;64.27
23223;BME280;11780;13.904;100.620;2023-03-18T13:29:39;100904.59;;;31.15;64.33
23223;BME280;11780;13.904;100.620;2023-03-18T13:43:46;100932.22;;;31.15;63.48
23223;BME280;11780;13.904;100.620;2023-03-18T13:46:24;100935.31;;;31.13;63.19
23223;BME280;11780;13.904;100.620;2023-03-18T13:48:57;100946.97;;;31.10;62.92
23223;BME280;11780;13.904;100.620;2023-03-18T13:54:03;100961.50;;;31.16;63.34
23223;BME280;11780;13.904;100.620;2023-03-18T14:16:17;100991.81;;;31.07;64.63
23223;BME280;11780;13.904;100.620;2023-03-18T14:19:05;100994.53;;;30.98;64.74
23223;BME280;11780;13.904;100.620;2023-03-18T14:21:45;100998.94;;;30.99;64.72
23223;BME280;11780;13.904;100.620;2023-03-18T14:24:22;101008.84;;;31.01;64.66
23223;BME280;11780;13.904;100.620;2023-03-18T14:41:52;101023.94;;;31.26;64.08
23223;BME280;11780;13.904;100.620;2023-03-18T14:47:51;101031.31;;;31.39;63.46
23223;BME280;11780;13.904;100.620;2023-03-18T14:50:33;101032.59;;;31.42;63.41
23223;BME280;11780;13.904;100.620;2023-03-18T14:56:00;101045.66;;;31.50;63.96
23223;BME280;11780;13.904;100.620;2023-03-18T14:58:33;101049.56;;;31.49;63.54
23223;BME280;11780;13.904;100.620;2023-03-18T15:01:10;101055.56;;;31.51;63.85
23223;BME280;11780;13.904;100.620;2023-03-18T15:03:52;101053.63;;;31.61;63.45
23223;BME280;11780;13.904;100.620;2023-03-18T15:06:26;101057.53;;;31.59;63.17
23223;BME280;11780;13.904;100.620;2023-03-18T15:09:09;101044.38;;;31.65;63.64
23223;BME280;11780;13.904;100.620;2023-03-18T15:11:44;101056.25;;;31.66;63.29
23223;BME280;11780;13.904;100.620;2023-03-18T15:14:28;101057.53;;;31.59;63.69
23223;BME280;11780;13.904;100.620;2023-03-18T15:17:02;101061.94;;;31.69;63.59
23223;BME280;11780;13.904;100.620;2023-03-18T15:19:32;101066.53;;;31.74;63.51